sensor_id;sensor_type;location;lat;lon;timestamp;P1;durP1;ratioP1;P2;durP2;ratioP2
16593;SDS011;8410;52.532;13.336;2022-08-25T00:02:04;11.95;;;10.55;;
16593;SDS011;8410;52.532;13.336;2022-08-25T00:04:35;10.55;;;9.43;;
16593;SDS011;8410;52.532;13.336;2022-08-25T00:07:04;10.55;;;9.27;;
16593;SDS011;8410;52.532;13.336;2022-08-25T00:09:33;10.88;;;9.57;;
16593;SDS011;8410;52.532;13.336;2022-08-25T00:12:03;12.40;;;9.75;;
16593;SDS011;8410;52.532;13.336;2022-08-25T00:14:33;9.95;;;9.05;;
16593;SDS011;8410;52.532;13.336;2022-08-25T00:17:05;12.02;;;8.75;;
16593;SDS011;8410;52.532;13.336;2022-08-25T00:19:34;9.65;;;8.75;;
16593;SDS011;8410;52.532;13.336;2022-08-25T00:22:04;9.95;;;9.02;;
16593;SDS011;8410;52.532;13.336;2022-08-25T00:24:33;11.27;;;9.63;;
16593;SDS011;8410;52.532;13.336;2022-08-25T00:27:02;10.13;;;8.85;;
16593;SDS011;8410;52.532;13.336;2022-08-25T00:29:31;11.68;;;9.82;;
16593;SDS011;8410;52.532;13.336;2022-08-25T00:32:04;10.57;;;9.20;;
16593;SDS011;8410;52.532;13.336;2022-08-25T00:34:34;10.20;;;8.48;;
16593;SDS011;8410;52.532;13.336;2022-08-25T00:37:05;12.98;;;9.80;;
16593;SDS011;8410;52.532;13.336;2022-08-25T00:39:35;11.90;;;9.65;;
16593;SDS011;8410;52.532;13.336;2022-08-25T00:42:05;10.52;;;9.23;;
16593;SDS011;8410;52.532;13.336;2022-08-25T00:44:41;15.27;;;9.70;;
16593;SDS011;8410;52.532;13.336;2022-08-25T00:47:11;11.15;;;9.68;;
16593;SDS011;8410;52.532;13.336;2022-08-25T00:49:41;11.95;;;9.85;;
16593;SDS011;8410;52.532;13.336;2022-08-25T00:52:15;12.20;;;9.15;;
16593;SDS011;8410;52.532;13.336;2022-08-25T00:54:49;12.82;;;9.80;;
16593;SDS011;8410;52.532;13.336;2022-08-25T00:57:23;11.23;;;9.18;;
16593;SDS011;8410;52.532;13.336;2022-08-25T01:00:00;11.18;;;9.85;;
16593;SDS011;8410;52.532;13.336;2022-08-25T01:02:33;10.65;;;9.60;;
16593;SDS011;8410;52.532;13.336;2022-08-25T01:05:01;10.70;;;9.13;;
16593;SDS011;8410;52.532;13.336;2022-08-25T01:07:30;10.57;;;9.48;;
16593;SDS011;8410;52.532;13.336;2022-08-25T01:09:58;10.25;;;9.25;;
16593;SDS011;8410;52.532;13.336;2022-08-25T01:12:28;11.30;;;9.70;;
16593;SDS011;8410;52.532;13.336;2022-08-25T01:14:56;12.50;;;9.48;;
16593;SDS011;8410;52.532;13.336;2022-08-25T01:17:24;11.23;;;9.60;;
16593;SDS011;8410;52.532;13.336;2022-08-25T01:20:01;12.88;;;10.43;;
16593;SDS011;8410;52.532;13.336;2022-08-25T01:22:32;15.52;;;9.43;;
16593;SDS011;8410;52.532;13.336;2022-08-25T01:25:00;11.15;;;9.40;;
16593;SDS011;8410;52.532;13.336;2022-08-25T01:27:39;11.52;;;9.40;;
16593;SDS011;8410;52.532;13.336;2022-08-25T01:30:07;12.75;;;9.07;;
16593;SDS011;8410;52.532;13.336;2022-08-25T01:32:36;12.77;;;9.30;;
16593;SDS011;8410;52.532;13.336;2022-08-25T01:35:04;12.25;;;9.73;;
16593;SDS011;8410;52.532;13.336;2022-08-25T01:37:34;10.77;;;9.07;;
16593;SDS011;8410;52.532;13.336;2022-08-25T01:40:03;12.45;;;9.60;;
16593;SDS011;8410;52.532;13.336;2022-08-25T01:42:36;13.60;;;9.63;;
16593;SDS011;8410;52.532;13.336;2022-08-25T01:45:23;14.10;;;9.40;;
16593;SDS011;8410;52.532;13.336;2022-08-25T01:47:54;11.85;;;9.18;;
16593;SDS011;8410;52.532;13.336;2022-08-25T01:50:22;10.57;;;9.55;;
16593;SDS011;8410;52.532;13.336;2022-08-25T01:52:53;13.73;;;9.95;;
16593;SDS011;8410;52.532;13.336;2022-08-25T01:55:25;10.50;;;9.45;;
16593;SDS011;8410;52.532;13.336;2022-08-25T01:57:54;10.68;;;9.68;;
16593;SDS011;8410;52.532;13.336;2022-08-25T02:00:22;14.43;;;10.25;;
16593;SDS011;8410;52.532;13.336;2022-08-25T02:02:51;10.40;;;9.40;;
16593;SDS011;8410;52.532;13.336;2022-08-25T02:05:20;11.85;;;9.90;;
16593;SDS011;8410;52.532;13.336;2022-08-25T02:07:49;13.50;;;9.68;;
16593;SDS011;8410;52.532;13.336;2022-08-25T02:10:18;11.68;;;10.38;;
16593;SDS011;8410;52.532;13.336;2022-08-25T02:12:48;12.00;;;10.35;;
16593;SDS011;8410;52.532;13.336;2022-08-25T02:15:19;12.30;;;10.93;;
16593;SDS011;8410;52.532;13.336;2022-08-25T02:17:47;11.93;;;10.63;;
16593;SDS011;8410;52.532;13.336;2022-08-25T02:20:15;12.20;;;10.73;;
16593;SDS011;8410;52.532;13.336;2022-08-25T02:22:44;11.55;;;10.35;;
16593;SDS011;8410;52.532;13.336;2022-08-25T02:25:23;12.70;;;10.07;;
16593;SDS011;8410;52.532;13.336;2022-08-25T02:27:52;14.27;;;10.65;;
16593;SDS011;8410;52.532;13.336;2022-08-25T02:30:20;12.43;;;11.07;;
16593;SDS011;8410;52.532;13.336;2022-08-25T02:32:48;13.38;;;11.70;;
16593;SDS011;8410;52.532;13.336;2022-08-25T02:35:17;13.77;;;11.32;;
16593;SDS011;8410;52.532;13.336;2022-08-25T02:37:46;14.55;;;10.85;;
16593;SDS011;8410;52.532;13.336;2022-08-25T02:40:14;14.70;;;11.52;;
16593;SDS011;8410;52.532;13.336;2022-08-25T02:42:43;13.00;;;10.60;;
16593;SDS011;8410;52.532;13.336;2022-08-25T02:45:11;12.95;;;10.60;;
16593;SDS011;8410;52.532;13.336;2022-08-25T02:47:39;13.73;;;10.50;;
16593;SDS011;8410;52.532;13.336;2022-08-25T02:50:08;13.27;;;10.30;;
16593;SDS011;8410;52.532;13.336;2022-08-25T02:52:36;13.70;;;11.20;;
16593;SDS011;8410;52.532;13.336;2022-08-25T02:55:08;12.38;;;11.07;;
16593;SDS011;8410;52.532;13.336;2022-08-25T02:57:39;13.43;;;11.32;;
16593;SDS011;8410;52.532;13.336;2022-08-25T03:00:10;13.75;;;11.10;;
16593;SDS011;8410;52.532;13.336;2022-08-25T03:02:42;14.43;;;11.85;;
16593;SDS011;8410;52.532;13.336;2022-08-25T03:05:12;15.38;;;12.73;;
16593;SDS011;8410;52.532;13.336;2022-08-25T03:07:41;12.40;;;11.15;;
16593;SDS011;8410;52.532;13.336;2022-08-25T03:10:11;13.63;;;12.18;;
16593;SDS011;8410;52.532;13.336;2022-08-25T03:12:43;15.27;;;12.25;;
16593;SDS011;8410;52.532;13.336;2022-08-25T03:15:13;12.35;;;11.25;;
16593;SDS011;8410;52.532;13.336;2022-08-25T03:17:44;14.80;;;13.27;;
16593;SDS011;8410;52.532;13.336;2022-08-25T03:20:16;14.10;;;12.30;;
16593;SDS011;8410;52.532;13.336;2022-08-25T03:22:45;16.40;;;12.82;;
16593;SDS011;8410;52.532;13.336;2022-08-25T03:25:14;14.55;;;12.80;;
16593;SDS011;8410;52.532;13.336;2022-08-25T03:28:01;16.38;;;12.60;;
16593;SDS011;8410;52.532;13.336;2022-08-25T03:30:31;14.30;;;12.73;;
16593;SDS011;8410;52.532;13.336;2022-08-25T03:33:00;15.68;;;13.43;;
16593;SDS011;8410;52.532;13.336;2022-08-25T03:35:28;21.90;;;15.40;;
16593;SDS011;8410;52.532;13.336;2022-08-25T03:37:57;18.17;;;15.23;;
16593;SDS011;8410;52.532;13.336;2022-08-25T03:40:27;17.75;;;14.70;;
16593;SDS011;8410;52.532;13.336;2022-08-25T03:42:55;17.15;;;15.48;;
16593;SDS011;8410;52.532;13.336;2022-08-25T03:45:23;20.85;;;13.45;;
16593;SDS011;8410;52.532;13.336;2022-08-25T03:47:53;18.63;;;14.40;;
16593;SDS011;8410;52.532;13.336;2022-08-25T03:50:22;18.47;;;16.57;;
16593;SDS011;8410;52.532;13.336;2022-08-25T03:52:51;18.90;;;14.87;;
16593;SDS011;8410;52.532;13.336;2022-08-25T03:55:21;17.15;;;15.25;;
16593;SDS011;8410;52.532;13.336;2022-08-25T03:57:52;19.27;;;17.27;;
16593;SDS011;8410;52.532;13.336;2022-08-25T04:00:22;19.83;;;16.13;;
16593;SDS011;8410;52.532;13.336;2022-08-25T04:02:50;17.70;;;15.77;;
16593;SDS011;8410;52.532;13.336;2022-08-25T04:05:19;19.67;;;16.52;;
16593;SDS011;8410;52.532;13.336;2022-08-25T04:07:51;19.88;;;17.83;;
16593;SDS011;8410;52.532;13.336;2022-08-25T04:10:20;21.58;;;18.80;;
16593;SDS011;8410;52.532;13.336;2022-08-25T04:12:48;25.57;;;19.70;;
16593;SDS011;8410;52.532;13.336;2022-08-25T04:15:16;27.57;;;21.57;;
16593;SDS011;8410;52.532;13.336;2022-08-25T04:17:44;26.97;;;22.03;;
16593;SDS011;8410;52.532;13.336;2022-08-25T04:20:15;26.33;;;22.23;;
16593;SDS011;8410;52.532;13.336;2022-08-25T04:22:45;26.45;;;22.30;;
16593;SDS011;8410;52.532;13.336;2022-08-25T04:25:13;33.17;;;24.13;;
16593;SDS011;8410;52.532;13.336;2022-08-25T04:27:41;32.83;;;25.52;;
16593;SDS011;8410;52.532;13.336;2022-08-25T04:30:09;30.95;;;25.90;;
16593;SDS011;8410;52.532;13.336;2022-08-25T04:32:39;34.43;;;26.23;;
16593;SDS011;8410;52.532;13.336;2022-08-25T04:35:07;27.60;;;24.60;;
16593;SDS011;8410;52.532;13.336;2022-08-25T04:37:36;31.50;;;24.70;;
16593;SDS011;8410;52.532;13.336;2022-08-25T04:40:06;27.08;;;24.17;;
16593;SDS011;8410;52.532;13.336;2022-08-25T04:42:35;30.92;;;24.75;;
16593;SDS011;8410;52.532;13.336;2022-08-25T04:45:04;28.10;;;24.87;;
16593;SDS011;8410;52.532;13.336;2022-08-25T04:47:35;29.05;;;22.88;;
16593;SDS011;8410;52.532;13.336;2022-08-25T04:50:04;26.67;;;22.80;;
16593;SDS011;8410;52.532;13.336;2022-08-25T04:52:34;27.40;;;22.90;;
16593;SDS011;8410;52.532;13.336;2022-08-25T04:55:03;34.10;;;25.73;;
16593;SDS011;8410;52.532;13.336;2022-08-25T04:57:32;32.28;;;27.50;;
16593;SDS011;8410;52.532;13.336;2022-08-25T05:00:01;27.30;;;23.73;;
16593;SDS011;8410;52.532;13.336;2022-08-25T05:02:30;29.17;;;24.70;;
16593;SDS011;8410;52.532;13.336;2022-08-25T05:04:58;24.02;;;21.55;;
16593;SDS011;8410;52.532;13.336;2022-08-25T05:07:27;26.07;;;23.03;;
16593;SDS011;8410;52.532;13.336;2022-08-25T05:09:56;27.00;;;24.13;;
16593;SDS011;8410;52.532;13.336;2022-08-25T05:12:23;33.95;;;26.63;;
16593;SDS011;8410;52.532;13.336;2022-08-25T05:14:55;33.30;;;28.67;;
16593;SDS011;8410;52.532;13.336;2022-08-25T05:17:43;35.93;;;27.90;;
16593;SDS011;8410;52.532;13.336;2022-08-25T05:20:11;35.07;;;27.23;;
16593;SDS011;8410;52.532;13.336;2022-08-25T05:22:42;34.43;;;26.23;;
16593;SDS011;8410;52.532;13.336;2022-08-25T05:25:12;28.23;;;25.27;;
16593;SDS011;8410;52.532;13.336;2022-08-25T05:27:41;36.57;;;26.57;;
16593;SDS011;8410;52.532;13.336;2022-08-25T05:30:11;30.23;;;25.83;;
16593;SDS011;8410;52.532;13.336;2022-08-25T05:32:39;25.50;;;22.97;;
16593;SDS011;8410;52.532;13.336;2022-08-25T05:35:07;17.70;;;15.85;;
16593;SDS011;8410;52.532;13.336;2022-08-25T05:37:35;31.07;;;25.40;;
16593;SDS011;8410;52.532;13.336;2022-08-25T05:40:04;29.77;;;23.88;;
16593;SDS011;8410;52.532;13.336;2022-08-25T05:42:33;27.20;;;24.43;;
16593;SDS011;8410;52.532;13.336;2022-08-25T05:45:02;26.17;;;23.52;;
16593;SDS011;8410;52.532;13.336;2022-08-25T05:47:33;30.80;;;26.05;;
16593;SDS011;8410;52.532;13.336;2022-08-25T05:50:01;29.17;;;25.10;;
16593;SDS011;8410;52.532;13.336;2022-08-25T05:52:29;32.42;;;27.27;;
16593;SDS011;8410;52.532;13.336;2022-08-25T05:54:58;32.35;;;27.05;;
16593;SDS011;8410;52.532;13.336;2022-08-25T05:57:25;29.10;;;25.20;;
16593;SDS011;8410;52.532;13.336;2022-08-25T05:59:53;32.08;;;27.15;;
16593;SDS011;8410;52.532;13.336;2022-08-25T06:02:21;30.57;;;24.83;;
16593;SDS011;8410;52.532;13.336;2022-08-25T06:05:08;24.95;;;22.25;;
16593;SDS011;8410;52.532;13.336;2022-08-25T06:07:38;28.37;;;24.63;;
16593;SDS011;8410;52.532;13.336;2022-08-25T06:10:07;33.87;;;26.37;;
16593;SDS011;8410;52.532;13.336;2022-08-25T06:12:39;20.27;;;18.13;;
16593;SDS011;8410;52.532;13.336;2022-08-25T06:15:10;23.48;;;20.98;;
16593;SDS011;8410;52.532;13.336;2022-08-25T06:17:40;27.92;;;24.17;;
16593;SDS011;8410;52.532;13.336;2022-08-25T06:20:11;27.38;;;23.73;;
16593;SDS011;8410;52.532;13.336;2022-08-25T06:22:42;29.55;;;24.65;;
16593;SDS011;8410;52.532;13.336;2022-08-25T06:25:11;32.20;;;26.98;;
16593;SDS011;8410;52.532;13.336;2022-08-25T06:27:46;35.60;;;25.77;;
16593;SDS011;8410;52.532;13.336;2022-08-25T06:30:15;31.13;;;27.02;;
16593;SDS011;8410;52.532;13.336;2022-08-25T06:32:54;40.20;;;31.20;;
16593;SDS011;8410;52.532;13.336;2022-08-25T06:35:23;36.17;;;28.33;;
16593;SDS011;8410;52.532;13.336;2022-08-25T06:37:51;35.28;;;29.17;;
16593;SDS011;8410;52.532;13.336;2022-08-25T06:40:19;32.53;;;26.25;;
16593;SDS011;8410;52.532;13.336;2022-08-25T06:42:48;35.85;;;30.13;;
16593;SDS011;8410;52.532;13.336;2022-08-25T06:45:16;33.20;;;27.33;;
16593;SDS011;8410;52.532;13.336;2022-08-25T06:47:44;38.43;;;29.07;;
16593;SDS011;8410;52.532;13.336;2022-08-25T06:50:12;32.95;;;27.20;;
16593;SDS011;8410;52.532;13.336;2022-08-25T06:52:42;35.70;;;27.17;;
16593;SDS011;8410;52.532;13.336;2022-08-25T06:55:09;34.03;;;27.58;;
16593;SDS011;8410;52.532;13.336;2022-08-25T06:57:38;31.30;;;26.50;;
16593;SDS011;8410;52.532;13.336;2022-08-25T07:00:06;28.45;;;25.40;;
16593;SDS011;8410;52.532;13.336;2022-08-25T07:02:37;26.65;;;23.17;;
16593;SDS011;8410;52.532;13.336;2022-08-25T07:05:06;27.48;;;23.77;;
16593;SDS011;8410;52.532;13.336;2022-08-25T07:07:38;28.52;;;24.45;;
16593;SDS011;8410;52.532;13.336;2022-08-25T07:10:10;32.47;;;27.67;;
16593;SDS011;8410;52.532;13.336;2022-08-25T07:12:44;31.58;;;28.27;;
16593;SDS011;8410;52.532;13.336;2022-08-25T07:15:12;33.38;;;26.65;;
16593;SDS011;8410;52.532;13.336;2022-08-25T07:17:46;33.25;;;27.15;;
16593;SDS011;8410;52.532;13.336;2022-08-25T07:20:15;34.50;;;27.77;;
16593;SDS011;8410;52.532;13.336;2022-08-25T07:22:44;31.25;;;26.38;;
16593;SDS011;8410;52.532;13.336;2022-08-25T07:25:15;29.52;;;25.77;;
16593;SDS011;8410;52.532;13.336;2022-08-25T07:27:43;32.97;;;26.30;;
16593;SDS011;8410;52.532;13.336;2022-08-25T07:30:12;35.70;;;28.13;;
16593;SDS011;8410;52.532;13.336;2022-08-25T07:32:40;36.58;;;28.88;;
16593;SDS011;8410;52.532;13.336;2022-08-25T07:35:08;36.28;;;29.35;;
16593;SDS011;8410;52.532;13.336;2022-08-25T07:37:45;32.97;;;27.42;;
16593;SDS011;8410;52.532;13.336;2022-08-25T07:40:18;32.17;;;27.88;;
16593;SDS011;8410;52.532;13.336;2022-08-25T07:42:50;33.88;;;27.80;;
16593;SDS011;8410;52.532;13.336;2022-08-25T07:45:20;36.85;;;27.67;;
16593;SDS011;8410;52.532;13.336;2022-08-25T07:47:55;35.83;;;28.52;;
16593;SDS011;8410;52.532;13.336;2022-08-25T07:50:25;33.42;;;26.20;;
16593;SDS011;8410;52.532;13.336;2022-08-25T07:52:54;35.90;;;26.55;;
16593;SDS011;8410;52.532;13.336;2022-08-25T07:55:25;31.55;;;24.50;;
16593;SDS011;8410;52.532;13.336;2022-08-25T07:57:55;32.80;;;26.05;;
16593;SDS011;8410;52.532;13.336;2022-08-25T08:00:26;32.10;;;24.70;;
16593;SDS011;8410;52.532;13.336;2022-08-25T08:02:58;34.38;;;26.08;;
16593;SDS011;8410;52.532;13.336;2022-08-25T08:05:29;36.33;;;27.20;;
16593;SDS011;8410;52.532;13.336;2022-08-25T08:07:58;33.55;;;27.40;;
16593;SDS011;8410;52.532;13.336;2022-08-25T08:10:29;35.50;;;28.45;;
16593;SDS011;8410;52.532;13.336;2022-08-25T08:13:17;34.60;;;27.75;;
16593;SDS011;8410;52.532;13.336;2022-08-25T08:15:46;33.83;;;28.40;;
16593;SDS011;8410;52.532;13.336;2022-08-25T08:18:14;33.45;;;26.30;;
16593;SDS011;8410;52.532;13.336;2022-08-25T08:20:43;35.00;;;28.52;;
16593;SDS011;8410;52.532;13.336;2022-08-25T08:23:13;33.90;;;26.40;;
16593;SDS011;8410;52.532;13.336;2022-08-25T08:25:44;30.30;;;24.27;;
16593;SDS011;8410;52.532;13.336;2022-08-25T08:28:13;27.35;;;23.42;;
16593;SDS011;8410;52.532;13.336;2022-08-25T08:30:40;29.58;;;26.38;;
16593;SDS011;8410;52.532;13.336;2022-08-25T08:33:19;31.23;;;27.15;;
16593;SDS011;8410;52.532;13.336;2022-08-25T08:35:54;29.00;;;25.83;;
16593;SDS011;8410;52.532;13.336;2022-08-25T08:38:24;30.05;;;26.27;;
16593;SDS011;8410;52.532;13.336;2022-08-25T08:41:02;27.42;;;21.02;;
16593;SDS011;8410;52.532;13.336;2022-08-25T08:44:23;29.73;;;23.95;;
16593;SDS011;8410;52.532;13.336;2022-08-25T08:47:02;27.70;;;24.75;;
16593;SDS011;8410;52.532;13.336;2022-08-25T08:49:39;26.60;;;22.85;;
16593;SDS011;8410;52.532;13.336;2022-08-25T08:52:16;29.42;;;26.02;;
16593;SDS011;8410;52.532;13.336;2022-08-25T08:54:55;24.27;;;21.75;;
16593;SDS011;8410;52.532;13.336;2022-08-25T08:57:33;23.08;;;20.63;;
16593;SDS011;8410;52.532;13.336;2022-08-25T09:00:09;22.48;;;20.08;;
16593;SDS011;8410;52.532;13.336;2022-08-25T09:02:40;25.45;;;22.75;;
16593;SDS011;8410;52.532;13.336;2022-08-25T09:05:17;23.15;;;20.58;;
16593;SDS011;8410;52.532;13.336;2022-08-25T09:07:49;22.05;;;19.75;;
16593;SDS011;8410;52.532;13.336;2022-08-25T09:10:23;19.67;;;17.52;;
16593;SDS011;8410;52.532;13.336;2022-08-25T09:13:06;18.00;;;16.10;;
16593;SDS011;8410;52.532;13.336;2022-08-25T09:15:52;22.60;;;16.20;;
16593;SDS011;8410;52.532;13.336;2022-08-25T09:19:02;18.95;;;14.32;;
16593;SDS011;8410;52.532;13.336;2022-08-25T09:21:50;16.70;;;15.18;;
16593;SDS011;8410;52.532;13.336;2022-08-25T09:24:30;16.92;;;15.13;;
16593;SDS011;8410;52.532;13.336;2022-08-25T09:27:18;16.05;;;14.43;;
16593;SDS011;8410;52.532;13.336;2022-08-25T09:30:02;15.23;;;12.65;;
16593;SDS011;8410;52.532;13.336;2022-08-25T09:32:36;17.80;;;15.00;;
16593;SDS011;8410;52.532;13.336;2022-08-25T09:35:18;16.30;;;14.65;;
16593;SDS011;8410;52.532;13.336;2022-08-25T09:37:56;19.98;;;14.00;;
16593;SDS011;8410;52.532;13.336;2022-08-25T09:40:26;14.43;;;13.10;;
16593;SDS011;8410;52.532;13.336;2022-08-25T09:42:57;16.58;;;13.88;;
16593;SDS011;8410;52.532;13.336;2022-08-25T09:45:34;17.63;;;14.93;;
16593;SDS011;8410;52.532;13.336;2022-08-25T09:51:09;15.43;;;13.38;;
16593;SDS011;8410;52.532;13.336;2022-08-25T09:53:47;15.77;;;11.90;;
16593;SDS011;8410;52.532;13.336;2022-08-25T09:56:21;15.80;;;14.07;;
16593;SDS011;8410;52.532;13.336;2022-08-25T09:58:52;15.18;;;12.80;;
16593;SDS011;8410;52.532;13.336;2022-08-25T10:01:29;19.40;;;12.90;;
16593;SDS011;8410;52.532;13.336;2022-08-25T10:04:01;14.45;;;12.88;;
16593;SDS011;8410;52.532;13.336;2022-08-25T10:06:43;15.93;;;12.70;;
16593;SDS011;8410;52.532;13.336;2022-08-25T10:09:21;13.93;;;12.52;;
16593;SDS011;8410;52.532;13.336;2022-08-25T10:12:00;17.58;;;12.27;;
16593;SDS011;8410;52.532;13.336;2022-08-25T10:14:31;15.32;;;13.93;;
16593;SDS011;8410;52.532;13.336;2022-08-25T10:17:12;16.70;;;12.73;;
16593;SDS011;8410;52.532;13.336;2022-08-25T10:19:53;12.57;;;11.20;;
16593;SDS011;8410;52.532;13.336;2022-08-25T10:22:40;14.57;;;11.18;;
16593;SDS011;8410;52.532;13.336;2022-08-25T10:25:14;15.65;;;11.38;;
16593;SDS011;8410;52.532;13.336;2022-08-25T10:27:48;14.05;;;9.73;;
16593;SDS011;8410;52.532;13.336;2022-08-25T10:30:33;13.75;;;9.45;;
16593;SDS011;8410;52.532;13.336;2022-08-25T10:33:18;14.40;;;9.90;;
16593;SDS011;8410;52.532;13.336;2022-08-25T10:36:03;13.30;;;10.20;;
16593;SDS011;8410;52.532;13.336;2022-08-25T10:38:41;12.40;;;10.98;;
16593;SDS011;8410;52.532;13.336;2022-08-25T10:41:17;14.65;;;10.20;;
16593;SDS011;8410;52.532;13.336;2022-08-25T10:44:13;11.90;;;9.75;;
16593;SDS011;8410;52.532;13.336;2022-08-25T10:47:16;11.70;;;9.57;;
16593;SDS011;8410;52.532;13.336;2022-08-25T10:50:21;12.82;;;9.48;;
16593;SDS011;8410;52.532;13.336;2022-08-25T10:52:59;12.77;;;8.30;;
16593;SDS011;8410;52.532;13.336;2022-08-25T10:55:47;12.13;;;9.45;;
16593;SDS011;8410;52.532;13.336;2022-08-25T11:01:56;10.50;;;8.23;;
16593;SDS011;8410;52.532;13.336;2022-08-25T11:05:17;13.43;;;8.65;;
16593;SDS011;8410;52.532;13.336;2022-08-25T11:07:56;10.93;;;9.65;;
16593;SDS011;8410;52.532;13.336;2022-08-25T11:10:38;10.43;;;7.72;;
16593;SDS011;8410;52.532;13.336;2022-08-25T11:13:16;11.30;;;8.43;;
16593;SDS011;8410;52.532;13.336;2022-08-25T11:15:59;11.52;;;8.73;;
16593;SDS011;8410;52.532;13.336;2022-08-25T11:18:48;11.75;;;8.38;;
16593;SDS011;8410;52.532;13.336;2022-08-25T11:21:24;14.00;;;8.52;;
16593;SDS011;8410;52.532;13.336;2022-08-25T11:24:05;13.30;;;8.85;;
16593;SDS011;8410;52.532;13.336;2022-08-25T11:26:50;10.82;;;8.70;;
16593;SDS011;8410;52.532;13.336;2022-08-25T11:29:23;13.43;;;8.38;;
16593;SDS011;8410;52.532;13.336;2022-08-25T11:31:58;16.42;;;8.15;;
16593;SDS011;8410;52.532;13.336;2022-08-25T11:34:28;13.75;;;7.15;;
16593;SDS011;8410;52.532;13.336;2022-08-25T11:37:02;11.73;;;8.32;;
16593;SDS011;8410;52.532;13.336;2022-08-25T11:42:45;12.93;;;8.30;;
16593;SDS011;8410;52.532;13.336;2022-08-25T11:45:33;8.98;;;6.72;;
16593;SDS011;8410;52.532;13.336;2022-08-25T11:48:33;12.40;;;7.88;;
16593;SDS011;8410;52.532;13.336;2022-08-25T11:51:27;11.40;;;7.28;;
16593;SDS011;8410;52.532;13.336;2022-08-25T11:54:14;14.05;;;6.78;;
16593;SDS011;8410;52.532;13.336;2022-08-25T11:56:52;9.75;;;6.78;;
16593;SDS011;8410;52.532;13.336;2022-08-25T12:02:33;13.95;;;7.32;;
16593;SDS011;8410;52.532;13.336;2022-08-25T12:05:06;16.52;;;7.40;;
16593;SDS011;8410;52.532;13.336;2022-08-25T12:08:01;14.13;;;7.28;;
16593;SDS011;8410;52.532;13.336;2022-08-25T12:13:39;10.15;;;6.70;;
16593;SDS011;8410;52.532;13.336;2022-08-25T12:19:28;16.35;;;7.82;;
16593;SDS011;8410;52.532;13.336;2022-08-25T12:28:39;12.93;;;6.80;;
16593;SDS011;8410;52.532;13.336;2022-08-25T12:31:30;13.50;;;6.40;;
16593;SDS011;8410;52.532;13.336;2022-08-25T12:34:25;15.13;;;6.82;;
16593;SDS011;8410;52.532;13.336;2022-08-25T12:37:12;10.27;;;6.03;;
16593;SDS011;8410;52.532;13.336;2022-08-25T12:39:44;13.95;;;6.72;;
16593;SDS011;8410;52.532;13.336;2022-08-25T12:42:29;15.88;;;7.07;;
16593;SDS011;8410;52.532;13.336;2022-08-25T12:45:08;13.75;;;6.63;;
16593;SDS011;8410;52.532;13.336;2022-08-25T12:51:23;14.27;;;6.60;;
16593;SDS011;8410;52.532;13.336;2022-08-25T12:53:53;14.52;;;6.53;;
16593;SDS011;8410;52.532;13.336;2022-08-25T12:56:41;13.27;;;6.60;;
16593;SDS011;8410;52.532;13.336;2022-08-25T12:59:16;11.23;;;6.25;;
16593;SDS011;8410;52.532;13.336;2022-08-25T13:01:52;12.43;;;7.43;;
16593;SDS011;8410;52.532;13.336;2022-08-25T13:07:41;14.32;;;6.93;;
16593;SDS011;8410;52.532;13.336;2022-08-25T13:10:41;14.52;;;6.75;;
16593;SDS011;8410;52.532;13.336;2022-08-25T13:13:18;16.48;;;6.65;;
16593;SDS011;8410;52.532;13.336;2022-08-25T13:16:16;11.75;;;6.68;;
16593;SDS011;8410;52.532;13.336;2022-08-25T13:18:54;11.07;;;6.53;;
16593;SDS011;8410;52.532;13.336;2022-08-25T13:21:27;9.45;;;6.45;;
16593;SDS011;8410;52.532;13.336;2022-08-25T13:24:08;11.45;;;6.20;;
16593;SDS011;8410;52.532;13.336;2022-08-25T13:26:46;13.30;;;6.88;;
16593;SDS011;8410;52.532;13.336;2022-08-25T13:29:21;10.27;;;6.60;;
16593;SDS011;8410;52.532;13.336;2022-08-25T13:31:54;10.63;;;5.93;;
16593;SDS011;8410;52.532;13.336;2022-08-25T13:34:27;15.18;;;6.40;;
16593;SDS011;8410;52.532;13.336;2022-08-25T13:37:03;14.20;;;6.50;;
16593;SDS011;8410;52.532;13.336;2022-08-25T13:40:05;13.07;;;6.57;;
16593;SDS011;8410;52.532;13.336;2022-08-25T13:42:36;11.18;;;5.85;;
16593;SDS011;8410;52.532;13.336;2022-08-25T13:45:10;10.98;;;6.10;;
16593;SDS011;8410;52.532;13.336;2022-08-25T13:47:50;11.82;;;6.75;;
16593;SDS011;8410;52.532;13.336;2022-08-25T13:50:28;10.30;;;6.85;;
16593;SDS011;8410;52.532;13.336;2022-08-25T13:53:00;13.75;;;6.70;;
16593;SDS011;8410;52.532;13.336;2022-08-25T13:55:38;12.00;;;6.15;;
16593;SDS011;8410;52.532;13.336;2022-08-25T13:58:19;8.73;;;6.22;;
16593;SDS011;8410;52.532;13.336;2022-08-25T14:01:11;13.00;;;6.25;;
16593;SDS011;8410;52.532;13.336;2022-08-25T14:04:20;13.27;;;6.05;;
16593;SDS011;8410;52.532;13.336;2022-08-25T14:07:13;12.15;;;6.55;;
16593;SDS011;8410;52.532;13.336;2022-08-25T14:09:59;11.82;;;5.93;;
16593;SDS011;8410;52.532;13.336;2022-08-25T14:12:35;15.90;;;6.80;;
16593;SDS011;8410;52.532;13.336;2022-08-25T14:15:13;11.52;;;5.93;;
16593;SDS011;8410;52.532;13.336;2022-08-25T14:17:59;11.00;;;6.22;;
16593;SDS011;8410;52.532;13.336;2022-08-25T14:20:34;14.55;;;5.75;;
16593;SDS011;8410;52.532;13.336;2022-08-25T14:23:10;9.80;;;6.07;;
16593;SDS011;8410;52.532;13.336;2022-08-25T14:25:44;12.02;;;6.68;;
16593;SDS011;8410;52.532;13.336;2022-08-25T14:28:14;11.32;;;5.80;;
16593;SDS011;8410;52.532;13.336;2022-08-25T14:30:48;15.73;;;6.18;;
16593;SDS011;8410;52.532;13.336;2022-08-25T14:33:21;10.18;;;5.95;;
16593;SDS011;8410;52.532;13.336;2022-08-25T14:35:56;13.00;;;5.22;;
16593;SDS011;8410;52.532;13.336;2022-08-25T14:38:27;10.27;;;6.18;;
16593;SDS011;8410;52.532;13.336;2022-08-25T14:40:55;11.45;;;5.78;;
16593;SDS011;8410;52.532;13.336;2022-08-25T14:43:24;12.68;;;5.50;;
16593;SDS011;8410;52.532;13.336;2022-08-25T14:45:57;19.58;;;6.15;;
16593;SDS011;8410;52.532;13.336;2022-08-25T14:48:30;11.18;;;6.20;;
16593;SDS011;8410;52.532;13.336;2022-08-25T14:51:08;11.88;;;5.75;;
16593;SDS011;8410;52.532;13.336;2022-08-25T14:53:40;13.20;;;6.10;;
16593;SDS011;8410;52.532;13.336;2022-08-25T14:56:09;13.80;;;5.68;;
16593;SDS011;8410;52.532;13.336;2022-08-25T14:58:39;10.32;;;5.85;;
16593;SDS011;8410;52.532;13.336;2022-08-25T15:01:19;11.00;;;6.07;;
16593;SDS011;8410;52.532;13.336;2022-08-25T15:03:56;14.30;;;6.32;;
16593;SDS011;8410;52.532;13.336;2022-08-25T15:06:33;10.25;;;5.13;;
16593;SDS011;8410;52.532;13.336;2022-08-25T15:09:04;13.10;;;5.82;;
16593;SDS011;8410;52.532;13.336;2022-08-25T15:11:37;13.50;;;5.70;;
16593;SDS011;8410;52.532;13.336;2022-08-25T15:14:09;15.27;;;6.22;;
16593;SDS011;8410;52.532;13.336;2022-08-25T15:16:41;16.08;;;5.82;;
16593;SDS011;8410;52.532;13.336;2022-08-25T15:19:15;8.80;;;5.63;;
16593;SDS011;8410;52.532;13.336;2022-08-25T15:21:47;10.45;;;6.00;;
16593;SDS011;8410;52.532;13.336;2022-08-25T15:24:17;13.57;;;5.65;;
16593;SDS011;8410;52.532;13.336;2022-08-25T15:26:49;8.70;;;5.70;;
16593;SDS011;8410;52.532;13.336;2022-08-25T15:29:25;11.02;;;5.80;;
16593;SDS011;8410;52.532;13.336;2022-08-25T15:31:57;14.80;;;5.57;;
16593;SDS011;8410;52.532;13.336;2022-08-25T15:34:26;15.13;;;5.85;;
16593;SDS011;8410;52.532;13.336;2022-08-25T15:36:56;12.77;;;5.65;;
16593;SDS011;8410;52.532;13.336;2022-08-25T15:39:27;14.90;;;5.70;;
16593;SDS011;8410;52.532;13.336;2022-08-25T15:41:56;12.82;;;5.35;;